Weather at Whitehall Fire Department Heliport

Public forecast

Using degrees Fahrenheit for public forecast. Weather courtesy of forecast.io.

Closest aviation weather report (METAR) to Whitehall Fire Department Heliport

Closest report is Black River Falls Area Airport, 21.7 nm (40.2 km) ESE. Retrieved 2021/06/13 11:35 UTC (0 seconds ago):

KBCK 131135Z AUTO 00000KT 10SM CLR 11/09 A3004 RMK AO2 T01100094

Closest aviation forecast (TAF) to Whitehall Fire Department Heliport

Closest forecast is La Crosse Municipal Airport, 29.5 nm (54.7 km) S. Retrieved 2021/06/13 06:22 UTC (5 hours ago):

TAF KLSE 130520Z 1306/1406 VRB02KT P6SM SKC FM131600 30005KT P6SM SKC FM132000 27009G18KT P6SM SKC FM140200 30006KT P6SM SKC